createdAt,value
2022-08-01T00:01:53.523Z,66.32
2022-08-01T00:04:19.705Z,65.62
2022-08-01T00:06:45.869Z,61.90
2022-08-01T00:09:12.348Z,60.68
2022-08-01T00:11:56.255Z,60.41
2022-08-01T00:14:32.142Z,59.85
2022-08-01T00:17:02.444Z,59.33
2022-08-01T00:19:31.769Z,58.81
2022-08-01T00:21:57.925Z,59.42
2022-08-01T00:24:24.385Z,58.83
2022-08-01T00:26:50.546Z,59.05
2022-08-01T00:30:12.271Z,59.45
2022-08-01T00:32:03.344Z,59.32
2022-08-01T00:34:29.894Z,59.99
2022-08-01T00:36:56.033Z,59.66
2022-08-01T00:39:22.176Z,59.78
2022-08-01T00:41:48.322Z,60.43
2022-08-01T00:44:25.722Z,60.39
2022-08-01T00:46:51.885Z,60.63
2022-08-01T00:49:18.084Z,60.54
2022-08-01T00:51:44.270Z,61.35
2022-08-01T00:54:10.760Z,60.83
2022-08-01T00:56:39.458Z,61.60
2022-08-01T00:59:06.812Z,61.38
2022-08-01T01:01:39.454Z,62.16
2022-08-01T01:04:08.340Z,62.09
2022-08-01T01:07:04.004Z,62.41
2022-08-01T01:10:31.786Z,63.13
2022-08-01T01:13:07.674Z,63.60
2022-08-01T01:15:55.280Z,63.58
2022-08-01T01:18:36.897Z,64.47
2022-08-01T01:21:19.163Z,64.64
2022-08-01T01:24:19.795Z,65.59
2022-08-01T01:26:55.857Z,66.15
2022-08-01T01:29:29.265Z,67.52
2022-08-01T01:32:13.973Z,68.56
2022-08-01T01:34:44.821Z,69.88
2022-08-01T01:37:16.914Z,70.54
2022-08-01T01:39:45.399Z,71.89
2022-08-01T01:42:22.011Z,73.42
2022-08-01T01:44:51.056Z,74.51
2022-08-01T01:47:18.109Z,75.36
2022-08-01T01:49:48.192Z,76.33
2022-08-01T01:52:18.172Z,76.56
2022-08-01T01:54:49.778Z,77.09
2022-08-01T01:57:16.892Z,77.41
2022-08-01T01:59:45.151Z,78.57
2022-08-01T02:02:13.905Z,79.19
2022-08-01T02:04:43.731Z,79.32
2022-08-01T02:07:13.396Z,80.05
2022-08-01T02:09:43.098Z,80.53
2022-08-01T02:12:13.305Z,81.73
2022-08-01T02:14:43.099Z,82.02
2022-08-01T02:17:16.415Z,82.36
2022-08-01T02:19:42.895Z,82.95
2022-08-01T02:22:11.207Z,83.89
2022-08-01T02:24:46.535Z,83.69
2022-08-01T02:27:15.580Z,84.44
2022-08-01T02:29:53.572Z,84.51
2022-08-01T02:32:26.644Z,84.24
2022-08-01T02:34:57.343Z,84.40
2022-08-01T02:37:25.002Z,85.01
2022-08-01T02:39:55.164Z,85.35
2022-08-01T02:42:25.064Z,85.13
2022-08-01T02:44:53.409Z,85.79
2022-08-01T02:47:22.471Z,86.85
2022-08-01T02:49:53.181Z,86.71
2022-08-01T02:52:21.948Z,87.00
2022-08-01T02:54:50.754Z,86.89
2022-08-01T02:57:19.055Z,87.19
2022-08-01T02:59:49.035Z,87.87
2022-08-01T03:02:16.310Z,88.47
2022-08-01T03:04:43.841Z,89.01
2022-08-01T03:07:11.783Z,89.73
2022-08-01T03:09:41.688Z,90.60
2022-08-01T03:12:12.769Z,91.21
2022-08-01T03:14:43.162Z,91.93
2022-08-01T03:17:10.116Z,92.09
2022-08-01T03:19:39.032Z,92.65
2022-08-01T03:22:09.229Z,93.24
2022-08-01T03:24:37.951Z,93.80
2022-08-01T03:27:05.306Z,94.33
2022-08-01T03:29:33.498Z,95.01
2022-08-01T03:32:01.679Z,95.25
2022-08-01T03:34:28.589Z,95.57
2022-08-01T03:37:06.821Z,96.06
2022-08-01T03:39:38.061Z,96.09
2022-08-01T03:42:15.238Z,96.19
2022-08-01T03:44:42.398Z,95.97
2022-08-01T03:47:11.370Z,95.79
2022-08-01T03:49:42.931Z,95.61
2022-08-01T03:52:10.441Z,96.32
2022-08-01T03:54:41.342Z,95.59
2022-08-01T03:57:08.614Z,95.82
2022-08-01T03:59:47.321Z,96.15
2022-08-01T04:02:15.927Z,95.75
2022-08-01T04:04:42.537Z,95.92
2022-08-01T04:07:32.923Z,95.83
2022-08-01T04:09:59.216Z,96.13
2022-08-01T04:12:25.712Z,95.72
2022-08-01T04:14:52.270Z,95.80
2022-08-01T04:17:18.433Z,95.25
2022-08-01T04:19:45.849Z,95.55
2022-08-01T04:22:14.634Z,95.48
2022-08-01T04:24:43.391Z,95.55
2022-08-01T04:27:15.467Z,94.43
2022-08-01T04:29:43.325Z,94.40
2022-08-01T04:32:13.210Z,94.74
2022-08-01T04:34:42.607Z,93.29
2022-08-01T04:37:12.283Z,92.89
2022-08-01T04:39:50.253Z,92.00
2022-08-01T04:42:17.516Z,91.33
2022-08-01T04:44:52.455Z,89.61
2022-08-01T04:47:19.799Z,87.89
2022-08-01T04:49:48.829Z,86.36
2022-08-01T04:52:19.728Z,85.41
2022-08-01T04:54:47.961Z,84.99
2022-08-01T04:57:14.380Z,83.97
2022-08-01T04:59:44.743Z,82.75
2022-08-01T05:02:17.424Z,82.27
2022-08-01T05:04:44.530Z,81.65
2022-08-01T05:07:11.503Z,80.92
2022-08-01T05:09:38.458Z,80.46
2022-08-01T05:12:06.917Z,79.98
2022-08-01T05:14:34.155Z,79.62
2022-08-01T05:17:04.123Z,79.36
2022-08-01T05:19:34.434Z,80.03
2022-08-01T05:22:01.846Z,80.32
2022-08-01T05:24:31.151Z,80.14
2022-08-01T05:26:59.577Z,80.01
2022-08-01T05:29:27.799Z,80.12
2022-08-01T05:31:54.901Z,79.22
2022-08-01T05:34:21.855Z,78.75
2022-08-01T05:36:48.315Z,77.36
2022-08-01T05:39:14.846Z,76.92
2022-08-01T05:41:41.561Z,77.83
2022-08-01T05:44:08.370Z,77.32
2022-08-01T05:46:35.227Z,77.61
2022-08-01T05:49:02.938Z,78.60
2022-08-01T05:51:29.665Z,79.33
2022-08-01T05:53:56.681Z,80.10
2022-08-01T05:56:23.410Z,81.68
2022-08-01T05:58:50.557Z,83.93
2022-08-01T06:01:17.420Z,84.13
2022-08-01T06:03:43.581Z,83.35
2022-08-01T06:06:09.811Z,83.76
2022-08-01T06:08:35.994Z,84.09
2022-08-01T06:11:02.440Z,83.83
2022-08-01T06:13:28.654Z,82.95
2022-08-01T06:15:54.794Z,83.24
2022-08-01T06:18:21.574Z,82.60
2022-08-01T06:20:47.990Z,81.25
2022-08-01T06:23:31.696Z,80.72
2022-08-01T06:25:59.605Z,80.20
2022-08-01T06:28:25.922Z,81.29
2022-08-01T06:30:52.111Z,81.93
2022-08-01T06:33:18.334Z,82.93
2022-08-01T06:35:44.615Z,84.34
2022-08-01T06:38:10.889Z,85.36
2022-08-01T06:40:37.162Z,86.09
2022-08-01T06:43:03.341Z,86.53
2022-08-01T06:45:29.486Z,86.98
2022-08-01T06:47:55.682Z,87.44
2022-08-01T06:50:21.868Z,87.99
2022-08-01T06:52:48.074Z,87.42
2022-08-01T06:55:14.695Z,88.17
2022-08-01T06:57:48.326Z,87.95
2022-08-01T07:00:15.012Z,87.91
2022-08-01T07:02:42.155Z,87.77
2022-08-01T07:05:08.726Z,87.10
2022-08-01T07:07:34.909Z,86.84
2022-08-01T07:10:01.054Z,86.52
2022-08-01T07:12:27.265Z,86.02
2022-08-01T07:14:53.424Z,85.42
2022-08-01T07:17:21.569Z,85.48
2022-08-01T07:19:48.375Z,85.56
2022-08-01T07:22:20.961Z,85.59
2022-08-01T07:24:49.776Z,85.46
2022-08-01T07:27:23.946Z,85.48
2022-08-01T07:29:50.608Z,84.26
2022-08-01T07:32:16.765Z,83.64
2022-08-01T07:34:44.465Z,81.85
2022-08-01T07:37:10.614Z,80.51
2022-08-01T07:39:36.785Z,78.58
2022-08-01T07:42:13.371Z,77.94
2022-08-01T07:44:39.813Z,78.04
2022-08-01T07:47:06.432Z,77.60
2022-08-01T07:49:37.476Z,77.50
2022-08-01T07:52:05.949Z,77.90
2022-08-01T07:54:34.419Z,78.22
2022-08-01T07:57:02.523Z,77.64
2022-08-01T07:59:28.756Z,77.26
2022-08-01T08:01:54.996Z,76.89
2022-08-01T08:04:21.206Z,77.11
2022-08-01T08:06:48.714Z,76.53
2022-08-01T08:09:16.187Z,76.94
2022-08-01T08:11:47.971Z,76.17
2022-08-01T08:14:14.562Z,75.87
2022-08-01T08:16:40.749Z,74.64
2022-08-01T08:19:06.939Z,74.45
2022-08-01T08:21:33.104Z,75.55
2022-08-01T08:24:18.034Z,77.00
2022-08-01T08:26:44.415Z,78.08
2022-08-01T08:29:10.565Z,77.81
2022-08-01T08:31:50.758Z,77.28
2022-08-01T08:34:18.597Z,76.54
2022-08-01T08:36:47.734Z,74.07
2022-08-01T08:39:14.339Z,75.02
2022-08-01T08:41:40.558Z,73.05
2022-08-01T08:44:10.393Z,72.72
2022-08-01T08:46:45.779Z,72.10
2022-08-01T08:49:12.944Z,71.54
2022-08-01T08:51:40.961Z,71.51
2022-08-01T08:54:08.382Z,70.92
2022-08-01T08:56:36.418Z,69.01
2022-08-01T08:59:03.948Z,67.15
2022-08-01T09:01:33.661Z,65.87
2022-08-01T09:04:00.544Z,65.06
2022-08-01T09:06:26.775Z,63.88
2022-08-01T09:08:53.921Z,62.89
2022-08-01T09:11:23.041Z,62.04
2022-08-01T09:14:08.786Z,63.06
2022-08-01T09:16:36.017Z,62.43
2022-08-01T09:19:39.597Z,61.70
2022-08-01T09:22:06.066Z,61.53
2022-08-01T09:24:33.902Z,61.65
2022-08-01T09:27:00.652Z,60.93
2022-08-01T09:29:37.625Z,61.51
2022-08-01T09:32:06.413Z,61.28
2022-08-01T09:34:34.011Z,61.66
2022-08-01T09:37:02.944Z,61.95
2022-08-01T09:39:37.502Z,61.02
2022-08-01T09:42:20.959Z,61.49
2022-08-01T09:44:55.424Z,60.77
2022-08-01T09:47:23.382Z,60.95
2022-08-01T09:49:59.555Z,60.80
2022-08-01T09:52:28.807Z,59.67
2022-08-01T09:55:00.778Z,58.77
2022-08-01T09:57:29.121Z,57.27
2022-08-01T09:59:59.945Z,56.87
2022-08-01T10:02:34.178Z,55.98
2022-08-01T10:05:07.408Z,56.13
2022-08-01T10:07:43.185Z,54.32
2022-08-01T10:10:15.673Z,54.23
2022-08-01T10:12:44.437Z,54.28
2022-08-01T10:15:14.930Z,53.62
2022-08-01T10:17:51.062Z,54.31
2022-08-01T10:20:29.860Z,55.63
2022-08-01T10:23:02.223Z,54.95
2022-08-01T10:25:42.759Z,54.49
2022-08-01T10:28:23.630Z,54.48
2022-08-01T10:30:53.139Z,54.55
2022-08-01T10:33:50.559Z,54.96
2022-08-01T10:36:09.828Z,57.12
2022-08-01T10:38:37.209Z,57.24
2022-08-01T10:41:05.999Z,56.38
2022-08-01T10:43:33.076Z,55.99
2022-08-01T10:46:02.017Z,55.65
2022-08-01T10:48:43.991Z,55.52
2022-08-01T10:51:18.117Z,56.35
2022-08-01T10:53:54.367Z,57.25
2022-08-01T10:56:26.760Z,56.62
2022-08-01T10:59:06.564Z,56.17
2022-08-01T11:01:38.283Z,55.57
2022-08-01T11:04:15.553Z,54.81
2022-08-01T11:06:54.920Z,54.58
2022-08-01T11:09:24.900Z,54.57
2022-08-01T11:12:13.095Z,53.76
2022-08-01T11:15:10.055Z,52.72
2022-08-01T11:17:49.968Z,52.85
2022-08-01T11:20:32.564Z,52.94
2022-08-01T11:23:02.249Z,52.36
2022-08-01T11:26:04.030Z,52.49
2022-08-01T11:28:36.808Z,51.68
2022-08-01T11:31:11.937Z,52.73
2022-08-01T11:33:46.098Z,55.12
2022-08-01T11:36:13.041Z,56.81
2022-08-01T11:38:49.969Z,59.23
2022-08-01T11:41:18.304Z,60.25
2022-08-01T11:43:57.529Z,61.04
2022-08-01T11:47:09.172Z,61.60
2022-08-01T11:49:40.523Z,64.04
2022-08-01T21:10:33.141Z,77.19
2022-08-01T21:13:07.752Z,76.72
2022-08-01T21:15:57.492Z,77.40
2022-08-01T21:18:38.951Z,77.66
2022-08-01T21:21:10.473Z,77.58
2022-08-01T21:24:05.814Z,77.83
2022-08-01T21:26:35.983Z,78.22
2022-08-01T21:29:07.426Z,77.86
2022-08-01T21:31:40.800Z,78.52
2022-08-01T21:34:08.010Z,78.58
2022-08-01T21:36:35.932Z,79.02
2022-08-01T21:39:07.461Z,79.67
2022-08-01T21:41:56.205Z,80.15
2022-08-01T21:44:20.131Z,80.95
2022-08-01T21:46:48.293Z,81.31
2022-08-01T21:49:14.578Z,81.47
2022-08-01T21:51:45.767Z,82.12
2022-08-01T21:54:29.532Z,82.79
2022-08-01T21:57:12.328Z,83.39
2022-08-01T22:00:05.784Z,83.94
2022-08-01T22:02:43.774Z,84.05
2022-08-01T22:05:12.141Z,83.69
2022-08-01T22:07:46.211Z,83.59
2022-08-01T22:10:17.739Z,83.81
2022-08-01T22:12:45.065Z,83.81
2022-08-01T22:15:12.450Z,83.43
2022-08-01T22:17:39.176Z,83.50
2022-08-01T22:20:06.923Z,83.46
2022-08-01T22:22:50.866Z,83.38
2022-08-01T22:25:19.824Z,83.76
2022-08-01T22:28:06.383Z,83.83
2022-08-01T22:30:34.876Z,83.78
2022-08-01T22:33:07.247Z,83.87
2022-08-01T22:35:45.029Z,84.06
2022-08-01T22:38:11.170Z,84.29
2022-08-01T22:40:42.681Z,84.29
2022-08-01T22:43:18.218Z,84.58
2022-08-01T22:45:55.568Z,85.59
2022-08-01T22:48:34.247Z,85.88
2022-08-01T22:51:20.184Z,86.23
2022-08-01T22:53:55.493Z,86.78
2022-08-01T22:56:22.435Z,86.97
2022-08-01T22:58:48.730Z,87.74
2022-08-01T23:01:21.747Z,88.38
2022-08-01T23:03:50.845Z,88.69
2022-08-01T23:06:24.008Z,88.69
2022-08-01T23:08:50.915Z,89.62
2022-08-01T23:11:20.303Z,89.87
2022-08-01T23:13:47.211Z,90.27
2022-08-01T23:16:17.374Z,90.38
2022-08-01T23:18:46.055Z,91.33
2022-08-01T23:21:13.468Z,91.66
2022-08-01T23:23:40.351Z,92.32
2022-08-01T23:26:07.509Z,92.55
2022-08-01T23:28:33.825Z,92.97
2022-08-01T23:31:01.419Z,93.10
2022-08-01T23:33:27.567Z,92.95
2022-08-01T23:35:55.373Z,93.18
2022-08-01T23:38:21.534Z,93.87
2022-08-01T23:40:47.694Z,94.82
2022-08-01T23:43:16.921Z,94.95
2022-08-01T23:46:02.446Z,95.79
2022-08-01T23:48:30.523Z,96.46
2022-08-01T23:50:56.685Z,96.96
2022-08-01T23:53:23.763Z,96.78
2022-08-01T23:55:49.945Z,96.72
2022-08-01T23:58:16.360Z,96.80
